N3DE / N3DE 7700 Squawk Report (19th of April, 2019)

Time Lat Lon Altitude Heading Speed Vertical Rate
2019-04-19 19:00:11 GMT 35.845047 -83.948074 2,550 231 155 -1408
2019-04-19 19:00:08 GMT 35.846806 -83.945068 2,550 242 159 -1600
2019-04-19 18:59:57 GMT 35.850494 -83.937431 2,975 244 157 -1856
2019-04-19 18:59:46 GMT 35.853882 -83.928940 3,125 245 155 -1536
2019-04-19 18:59:35 GMT 35.857040 -83.920212 3,375 248 150 -1600
2019-04-19 18:59:26 GMT 35.859375 -83.912460 3,650 252 148 -1472
2019-04-19 18:59:16 GMT 35.861282 -83.904167 3,900 257 150 -1664
2019-04-19 18:59:06 GMT 35.862534 -83.895889 4,175 263 152 -1728
2019-04-19 18:58:56 GMT 35.863052 -83.887047 4,425 269 155 -1536
2019-04-19 18:58:50 GMT 35.863098 -83.882423 4,575 271 157 -1728
2019-04-19 18:58:45 GMT 35.862865 -83.877403 4,725 276 159 -1536
2019-04-19 18:58:38 GMT 35.862122 -83.871559 4,875 283 165 -1536
2019-04-19 18:58:34 GMT 35.861389 -83.867683 5,000 285 168 -1472
2019-04-19 18:58:27 GMT 35.859886 -83.861275 5,175 289 172 -1600
2019-04-19 18:58:23 GMT 35.858871 -83.857613 5,275 291 175 -1216
2019-04-19 18:58:14 GMT 35.855839 -83.847832 5,425 292 190 -832
2019-04-19 18:58:03 GMT 35.851879 -83.837021 5,650 296 205 -1664
2019-04-19 18:57:53 GMT 35.847473 -83.825684 5,875 296 210 -768
2019-04-19 18:57:49 GMT 35.846283 -83.822655 5,900 296 216 -64
2019-04-19 18:57:41 GMT 35.842430 -83.813065 5,900 298 225 -704
2019-04-19 18:57:37 GMT 35.840607 -83.808746 5,950 299 229 -1024
2019-04-19 18:57:29 GMT 35.836704 -83.799683 6,100 298 230 -1536
2019-04-19 18:57:25 GMT 35.834564 -83.794708 6,200 298 230 -1600
2019-04-19 18:57:21 GMT 35.832329 -83.789513 6,300 299 229 -1344
2019-04-19 18:57:10 GMT 35.826920 -83.777222 6,500 299 234 -1024
2019-04-19 18:56:59 GMT 35.821247 -83.764145 6,675 298 238 -960
2019-04-19 18:56:48 GMT 35.816025 -83.751183 6,850 295 238 -1024
2019-04-19 18:56:35 GMT 35.810211 -83.734184 7,075 291 236 -1344
2019-04-19 18:56:25 GMT 35.807144 -83.722305 7,325 285 230 -1088
2019-04-19 18:56:12 GMT 35.804352 -83.704948 7,550 279 229 -1280
2019-04-19 18:56:01 GMT 35.802673 -83.690926 7,725 278 232 -832
2019-04-19 18:55:51 GMT 35.801376 -83.677940 7,900 277 235 -1344
2019-04-19 18:55:44 GMT 35.800301 -83.666969 7,950 278 236 -1216
2019-04-19 18:55:40 GMT 35.799866 -83.662949 8,150 276 243 -320
2019-04-19 18:55:32 GMT 35.798859 -83.652412 8,225 277 242 -384
2019-04-19 18:55:15 GMT 35.797348 -83.629532 8,400 273 238 -704
2019-04-19 18:54:50 GMT 35.796890 -83.596626 8,725 271 223 -768
2019-04-19 18:54:25 GMT 35.796391 -83.563942 9,000 273 231 -512
2019-04-19 18:53:13 GMT 35.794762 -83.471840 9,875 273 245 -384
2019-04-19 18:53:03 GMT 35.794388 -83.457405 9,975 272 244 -768
2019-04-19 18:52:27 GMT 35.792999 -83.409286 10,500 275 235 -1088
2019-04-19 18:52:24 GMT 35.792759 -83.405281 10,550 275 235 -1088
2019-04-19 18:50:56 GMT 35.786335 -83.287766 11,725 272 226 -1216
2019-04-19 18:50:31 GMT 35.785774 -83.255798 12,100 271 221 -832
2019-04-19 18:50:23 GMT 35.785721 -83.244614 12,225 271 218 -704
2019-04-19 18:50:19 GMT 35.785683 -83.240898 12,250 271 216 -704
2019-04-19 18:50:08 GMT 35.785492 -83.227554 12,450 272 213 -1216
2019-04-19 18:49:55 GMT 35.785263 -83.211678 12,650 272 217 -576
2019-04-19 18:49:43 GMT 35.784889 -83.196716 12,700 273 224 576
2019-04-19 18:48:05 GMT 35.779350 -83.051788 12,475 275 259 64
2019-04-19 18:47:53 GMT 35.778187 -83.034142 12,475 276 259 -192
2019-04-19 18:47:02 GMT 35.763153 -82.961273 12,475 289 259 -128
2019-04-19 18:46:03 GMT 35.739899 -82.883202 12,475 289 241 128
2019-04-19 18:45:45 GMT 35.733685 -82.859650 12,500 288 237 128
We lost coverage of the aircraft here for a total of 9 minutes
2019-04-19 18:36:19 GMT 35.547821 -81.978889 12,325 274 267 -128
2019-04-19 18:36:07 GMT 35.546997 -81.961159 12,350 274 274 -512
2019-04-19 18:35:56 GMT 35.546124 -81.943985 12,350 274 277 256
2019-04-19 18:35:45 GMT 35.545166 -81.926765 12,350 274 277 128
2019-04-19 18:35:35 GMT 35.544342 -81.910912 12,350 274 278 64
2019-04-19 18:35:25 GMT 35.543381 -81.893921 12,350 274 278 -128
2019-04-19 18:35:14 GMT 35.542603 -81.877502 12,350 273 278 -64
2019-04-19 18:35:00 GMT 35.542099 -81.855469 12,350 272 277 -256
2019-04-19 18:34:52 GMT 35.542259 -81.842186 12,350 268 273 -128
2019-04-19 18:34:41 GMT 35.543472 -81.826462 12,350 262 268 64
2019-04-19 18:34:31 GMT 35.546452 -81.811096 12,375 252 259 64
2019-04-19 18:34:19 GMT 35.552719 -81.795219 12,325 234 250 0
2019-04-19 18:34:09 GMT 35.559952 -81.786003 12,350 220 244 0
2019-04-19 18:33:58 GMT 35.570518 -81.776093 12,375 218 243 192
2019-04-19 18:33:48 GMT 35.579502 -81.767731 12,350 217 242 384
2019-04-19 18:33:24 GMT 35.600739 -81.747833 12,350 218 242 -192
2019-04-19 18:33:15 GMT 35.608566 -81.740395 12,350 218 242 192
2019-04-19 18:33:05 GMT 35.617256 -81.732201 12,350 218 243 0
2019-04-19 18:32:55 GMT 35.626785 -81.723122 12,350 218 244 64
2019-04-19 18:32:29 GMT 35.650215 -81.702049 12,350 216 249 -64
2019-04-19 18:32:23 GMT 35.656448 -81.696571 12,350 216 252 -64
2019-04-19 18:32:12 GMT 35.666382 -81.687813 12,350 215 254 64
2019-04-19 18:32:01 GMT 35.677002 -81.679115 12,325 213 257 64
2019-04-19 18:31:50 GMT 35.688808 -81.670731 12,350 208 259 -256
2019-04-19 18:31:40 GMT 35.699699 -81.664764 12,350 203 260 64
2019-04-19 18:31:30 GMT 35.711433 -81.658920 12,350 203 261 -64
2019-04-19 18:31:19 GMT 35.723602 -81.652679 12,350 204 262 64
2019-04-19 18:31:08 GMT 35.735321 -81.646332 12,350 205 264 64
2019-04-19 18:30:58 GMT 35.747139 -81.639755 12,350 205 264 -256
2019-04-19 18:30:47 GMT 35.758636 -81.633324 12,350 205 264 0
2019-04-19 18:30:36 GMT 35.771206 -81.626312 12,350 205 265 192
2019-04-19 18:30:26 GMT 35.782799 -81.619827 12,375 205 267 -192
2019-04-19 18:30:15 GMT 35.794830 -81.613029 12,350 205 267 128
2019-04-19 18:30:04 GMT 35.806725 -81.606094 12,350 206 268 -192
2019-04-19 18:29:53 GMT 35.819759 -81.598557 12,375 205 265 256
2019-04-19 18:29:42 GMT 35.831863 -81.592010 12,350 204 263 -128
2019-04-19 18:29:30 GMT 35.844803 -81.585060 12,350 205 262 192
2019-04-19 18:29:20 GMT 35.856209 -81.578339 12,350 207 261 128

Making use of Plane Finder data

You are free to use the raw flight data, aircraft information and images provided in this report for your own purposes provided the data is correctly attributed to Plane Finder. We ask that you please credit Plane Finder and link to planefinder.net in close proximity to the content.

Optionally one of the following logos (no smaller then 150x24px) can be used and must link to planefinder.net

Embedding the Plane Finder map

You are welcome to embed the Plane Finder playback map on your website to offer visitors a more interactive experience. We suggest using the following HTML code:

<iframe src="//planefinder.net/data/report/N3DE-N3DE-7700-squawk-2019-04-19/map" width="800" height="600" seamless="seamless"></iframe>

Where our data comes from

Plane Finder has a global network of data feeds and antenna radars that receive data broadcast directly from aircraft. The primary technologies used are ADS-B and MLAT. We also show feeds from the FAA and a FLARM glider feed.

Click here to find out more about the Plane Finder network.

How we collect our data